Fenton, MI

6:42 AM EST on March 05, 2015 (GMT -0500)
RAWS HOLLY MI US | Change Station
CLOSE
Current Station
Personal Weather Station
Location: Fenton, MI
Elevation: 905 ft
Nearby Weather Stations

Elev 905 ft 42.82 °N, 83.68 °W | Updated 41 minutes ago

Partly Cloudy
Partly Cloudy
-2 °F
Feels Like -2 °F
N
1
Wind Variable Wind from North
Gusts 2.0 mph

Today
High -- | Low -- °F
--% Chance of Precip.
Yesterday
High -- | Low -- °F
Precip. -- in
7:04 AM 6:28 PM
Full, 100% visible
Pressure 30.40 in
Visibility 10.0 miles
Clouds Clear
Windchill -2 °F
Dew Point -7 °F
Humidity 77%
Rainfall in
Snow Depth Not available.
UV 0 out of 12
Pollen .70 out of 12
Air Quality Not available.
Flu Activity Not available.
METAR KFNT 051053Z 00000KT 10SM CLR M17/M21 A3034 RMK AO2 SLP292 T11721211

More Conditions Fewer Conditions

Pressure 30.40 in
Visibility 10.0 miles
Clouds Clear
Windchill -2 °F
Dew Point -7 °F
Humidity 77%
Rainfall in
Snow Depth Not available.
UV 0 out of 12
Pollen .70 out of 12
Air Quality Not available.
Flu Activity Not available.
METAR KFNT 051053Z 00000KT 10SM CLR M17/M21 A3034 RMK AO2 SLP292 T11721211

More Conditions Fewer Conditions

10-Day Weather Forecast

Almanac

Astronomy

Mar. 05, 2015 Rise Set
Actual Time
Civil Twilight
Nautical Twilight
Astronomical Twilight
Moon
Length of Visible Light
Length of Day
Tomorrow will be .
, % of the Moon is Illuminated

Today's Extremes

State Highs State Lows

Community

WunderPhotos

Upload Photos

1,802,716 photos uploaded!

WunderBlogs® & News

Nearby

Air Quality

  Air Quality AQ Index Pollutant
Not available.

Snow Depth

Station Depth Elevation

Earthquake Activity

City Distance Mag. Time & Date
Minimum magnitude displayed is 2.5.

Coastal Water Temperatures

Place Temperature

Nearby Weather Stations